sensor_id;sensor_type;location;lat;lon;timestamp;pressure;altitude;pressure_sealevel;temperature;humidity
47897;BME280;39629;51.400;5.494;2023-04-06T00:03:00;101674.84;;;0.02;100.00
47897;BME280;39629;51.400;5.494;2023-04-06T00:08:02;101683.47;;;0.02;100.00
47897;BME280;39629;51.400;5.494;2023-04-06T00:13:05;101674.81;;;-0.15;100.00
47897;BME280;39629;51.400;5.494;2023-04-06T00:18:09;101679.31;;;-0.27;100.00
47897;BME280;39629;51.400;5.494;2023-04-06T00:23:10;101683.97;;;-0.37;100.00
47897;BME280;39629;51.400;5.494;2023-04-06T00:28:12;101675.94;;;-0.26;100.00
47897;BME280;39629;51.400;5.494;2023-04-06T00:33:15;101665.25;;;-0.32;100.00
47897;BME280;39629;51.400;5.494;2023-04-06T00:38:17;101666.97;;;-0.48;100.00
47897;BME280;39629;51.400;5.494;2023-04-06T00:43:18;101653.72;;;-0.54;100.00
47897;BME280;39629;51.400;5.494;2023-04-06T00:48:21;101661.28;;;-0.57;100.00
47897;BME280;39629;51.400;5.494;2023-04-06T00:53:23;101648.91;;;-0.63;100.00
47897;BME280;39629;51.400;5.494;2023-04-06T00:58:26;101646.06;;;-0.52;100.00
47897;BME280;39629;51.400;5.494;2023-04-06T01:03:37;101639.41;;;-0.47;100.00
47897;BME280;39629;51.400;5.494;2023-04-06T01:08:39;101639.00;;;-0.55;100.00
47897;BME280;39629;51.400;5.494;2023-04-06T01:13:54;101626.81;;;-0.58;100.00
47897;BME280;39629;51.400;5.494;2023-04-06T01:19:19;101626.31;;;-0.50;100.00
47897;BME280;39629;51.400;5.494;2023-04-06T01:24:28;101632.69;;;-0.60;100.00
47897;BME280;39629;51.400;5.494;2023-04-06T01:29:35;101624.84;;;-0.62;100.00
47897;BME280;39629;51.400;5.494;2023-04-06T01:34:40;101614.94;;;-0.54;100.00
47897;BME280;39629;51.400;5.494;2023-04-06T01:39:44;101616.97;;;-0.48;100.00
47897;BME280;39629;51.400;5.494;2023-04-06T01:44:52;101602.19;;;-0.51;100.00
47897;BME280;39629;51.400;5.494;2023-04-06T01:49:53;101600.28;;;-0.22;100.00
47897;BME280;39629;51.400;5.494;2023-04-06T01:54:57;101595.81;;;-0.25;100.00
47897;BME280;39629;51.400;5.494;2023-04-06T02:00:34;101598.22;;;-0.28;100.00
47897;BME280;39629;51.400;5.494;2023-04-06T02:05:36;101581.41;;;-0.20;100.00
47897;BME280;39629;51.400;5.494;2023-04-06T02:10:50;101577.59;;;0.23;100.00
47897;BME280;39629;51.400;5.494;2023-04-06T02:16:01;101571.94;;;0.48;100.00
47897;BME280;39629;51.400;5.494;2023-04-06T02:21:03;101571.31;;;0.36;100.00
47897;BME280;39629;51.400;5.494;2023-04-06T02:26:06;101568.91;;;0.39;100.00
47897;BME280;39629;51.400;5.494;2023-04-06T02:31:08;101566.50;;;0.60;100.00
47897;BME280;39629;51.400;5.494;2023-04-06T02:36:10;101559.53;;;0.77;100.00
47897;BME280;39629;51.400;5.494;2023-04-06T02:41:13;101553.22;;;0.72;100.00
47897;BME280;39629;51.400;5.494;2023-04-06T02:46:15;101545.91;;;0.99;100.00
47897;BME280;39629;51.400;5.494;2023-04-06T02:51:16;101547.97;;;1.07;100.00
47897;BME280;39629;51.400;5.494;2023-04-06T02:56:25;101535.59;;;1.01;100.00
47897;BME280;39629;51.400;5.494;2023-04-06T03:01:27;101533.94;;;1.02;100.00
47897;BME280;39629;51.400;5.494;2023-04-06T03:06:32;101515.53;;;1.15;100.00
47897;BME280;39629;51.400;5.494;2023-04-06T03:11:46;101529.31;;;1.14;100.00
47897;BME280;39629;51.400;5.494;2023-04-06T03:16:48;101519.03;;;1.15;100.00
47897;BME280;39629;51.400;5.494;2023-04-06T03:21:53;101513.63;;;1.30;100.00
47897;BME280;39629;51.400;5.494;2023-04-06T03:26:58;101514.47;;;1.29;100.00
47897;BME280;39629;51.400;5.494;2023-04-06T03:32:01;101507.38;;;1.45;100.00
47897;BME280;39629;51.400;5.494;2023-04-06T03:37:10;101506.47;;;1.44;100.00
47897;BME280;39629;51.400;5.494;2023-04-06T03:42:21;101507.38;;;1.45;100.00
47897;BME280;39629;51.400;5.494;2023-04-06T03:47:30;101499.19;;;1.55;100.00
47897;BME280;39629;51.400;5.494;2023-04-06T03:52:37;101505.09;;;1.52;100.00
47897;BME280;39629;51.400;5.494;2023-04-06T03:57:39;101496.31;;;1.68;100.00
47897;BME280;39629;51.400;5.494;2023-04-06T04:02:41;101502.72;;;1.77;100.00
47897;BME280;39629;51.400;5.494;2023-04-06T04:07:43;101496.56;;;1.75;100.00
47897;BME280;39629;51.400;5.494;2023-04-06T04:12:47;101498.31;;;1.95;100.00
47897;BME280;39629;51.400;5.494;2023-04-06T04:17:49;101498.16;;;2.12;100.00
47897;BME280;39629;51.400;5.494;2023-04-06T04:22:53;101503.63;;;1.98;100.00
47897;BME280;39629;51.400;5.494;2023-04-06T04:27:56;101501.78;;;2.15;100.00
47897;BME280;39629;51.400;5.494;2023-04-06T04:32:58;101500.41;;;2.04;100.00
47897;BME280;39629;51.400;5.494;2023-04-06T04:38:01;101499.53;;;2.03;100.00
47897;BME280;39629;51.400;5.494;2023-04-06T04:43:06;101491.44;;;1.96;100.00
47897;BME280;39629;51.400;5.494;2023-04-06T04:48:08;101484.47;;;1.95;100.00
47897;BME280;39629;51.400;5.494;2023-04-06T04:53:22;101482.69;;;2.15;100.00
47897;BME280;39629;51.400;5.494;2023-04-06T04:58:27;101486.50;;;2.23;100.00
47897;BME280;39629;51.400;5.494;2023-04-06T05:03:32;101487.97;;;2.37;100.00
47897;BME280;39629;51.400;5.494;2023-04-06T05:08:38;101480.44;;;2.23;100.00
47897;BME280;39629;51.400;5.494;2023-04-06T05:13:42;101483.59;;;2.36;100.00
47897;BME280;39629;51.400;5.494;2023-04-06T05:18:49;101487.06;;;2.37;100.00
47897;BME280;39629;51.400;5.494;2023-04-06T05:23:51;101484.09;;;2.49;100.00
47897;BME280;39629;51.400;5.494;2023-04-06T05:28:54;101479.41;;;2.61;100.00
47897;BME280;39629;51.400;5.494;2023-04-06T05:33:57;101482.59;;;2.77;100.00
47897;BME280;39629;51.400;5.494;2023-04-06T05:39:05;101480.88;;;2.77;100.00
47897;BME280;39629;51.400;5.494;2023-04-06T05:44:13;101476.22;;;2.91;100.00
47897;BME280;39629;51.400;5.494;2023-04-06T05:49:19;101474.34;;;3.10;100.00
47897;BME280;39629;51.400;5.494;2023-04-06T05:54:20;101476.28;;;3.15;100.00
47897;BME280;39629;51.400;5.494;2023-04-06T05:59:25;101482.00;;;3.29;100.00
47897;BME280;39629;51.400;5.494;2023-04-06T06:04:27;101475.28;;;3.36;100.00
47897;BME280;39629;51.400;5.494;2023-04-06T06:09:29;101474.75;;;3.45;100.00
47897;BME280;39629;51.400;5.494;2023-04-06T06:14:41;101468.31;;;3.59;100.00
47897;BME280;39629;51.400;5.494;2023-04-06T06:19:44;101472.47;;;3.78;100.00
47897;BME280;39629;51.400;5.494;2023-04-06T06:24:46;101477.31;;;3.93;100.00
47897;BME280;39629;51.400;5.494;2023-04-06T06:29:50;101466.66;;;4.11;100.00
47897;BME280;39629;51.400;5.494;2023-04-06T06:34:52;101482.63;;;4.22;100.00
47897;BME280;39629;51.400;5.494;2023-04-06T06:39:54;101478.59;;;4.32;100.00
47897;BME280;39629;51.400;5.494;2023-04-06T06:44:57;101477.28;;;4.45;100.00
47897;BME280;39629;51.400;5.494;2023-04-06T06:49:59;101472.31;;;4.52;100.00
47897;BME280;39629;51.400;5.494;2023-04-06T06:55:01;101470.06;;;4.63;100.00
47897;BME280;39629;51.400;5.494;2023-04-06T07:00:05;101476.31;;;4.68;100.00
47897;BME280;39629;51.400;5.494;2023-04-06T07:05:08;101470.34;;;4.72;100.00
47897;BME280;39629;51.400;5.494;2023-04-06T07:10:10;101471.47;;;4.81;100.00
47897;BME280;39629;51.400;5.494;2023-04-06T07:15:13;101466.63;;;4.93;100.00
47897;BME280;39629;51.400;5.494;2023-04-06T07:20:15;101462.63;;;5.04;100.00
47897;BME280;39629;51.400;5.494;2023-04-06T07:25:17;101458.78;;;5.22;100.00
47897;BME280;39629;51.400;5.494;2023-04-06T07:30:20;101461.84;;;5.37;100.00
47897;BME280;39629;51.400;5.494;2023-04-06T07:35:23;101462.84;;;5.42;100.00
47897;BME280;39629;51.400;5.494;2023-04-06T07:40:26;101454.09;;;5.72;100.00
47897;BME280;39629;51.400;5.494;2023-04-06T07:45:31;101448.53;;;5.93;100.00
47897;BME280;39629;51.400;5.494;2023-04-06T07:50:35;101450.97;;;6.19;100.00
47897;BME280;39629;51.400;5.494;2023-04-06T07:55:37;101447.97;;;6.40;100.00
47897;BME280;39629;51.400;5.494;2023-04-06T08:00:40;101439.59;;;6.54;100.00
47897;BME280;39629;51.400;5.494;2023-04-06T08:05:42;101443.97;;;6.55;100.00
47897;BME280;39629;51.400;5.494;2023-04-06T08:10:43;101446.44;;;6.87;100.00
47897;BME280;39629;51.400;5.494;2023-04-06T08:15:46;101443.25;;;7.00;100.00
47897;BME280;39629;51.400;5.494;2023-04-06T08:20:48;101443.53;;;7.14;100.00
47897;BME280;39629;51.400;5.494;2023-04-06T08:25:50;101450.06;;;7.33;100.00
47897;BME280;39629;51.400;5.494;2023-04-06T08:30:55;101452.19;;;7.54;100.00
47897;BME280;39629;51.400;5.494;2023-04-06T08:35:57;101458.00;;;7.83;100.00
47897;BME280;39629;51.400;5.494;2023-04-06T08:40:58;101453.97;;;8.03;100.00
47897;BME280;39629;51.400;5.494;2023-04-06T08:46:01;101452.53;;;8.22;100.00
47897;BME280;39629;51.400;5.494;2023-04-06T08:51:03;101458.03;;;8.37;100.00
47897;BME280;39629;51.400;5.494;2023-04-06T08:56:05;101457.97;;;8.34;100.00
47897;BME280;39629;51.400;5.494;2023-04-06T09:01:11;101456.69;;;8.64;100.00
47897;BME280;39629;51.400;5.494;2023-04-06T09:06:13;101463.41;;;8.46;100.00
47897;BME280;39629;51.400;5.494;2023-04-06T09:11:15;101460.16;;;8.61;100.00
47897;BME280;39629;51.400;5.494;2023-04-06T09:16:18;101463.16;;;8.88;100.00
47897;BME280;39629;51.400;5.494;2023-04-06T09:21:20;101464.63;;;8.68;100.00
47897;BME280;39629;51.400;5.494;2023-04-06T09:26:22;101468.91;;;8.63;100.00
47897;BME280;39629;51.400;5.494;2023-04-06T09:31:26;101468.66;;;9.05;100.00
47897;BME280;39629;51.400;5.494;2023-04-06T09:36:30;101459.81;;;8.96;100.00
47897;BME280;39629;51.400;5.494;2023-04-06T09:41:34;101456.69;;;9.25;100.00
47897;BME280;39629;51.400;5.494;2023-04-06T09:46:38;101460.50;;;9.53;100.00
47897;BME280;39629;51.400;5.494;2023-04-06T09:51:41;101459.50;;;9.42;100.00
47897;BME280;39629;51.400;5.494;2023-04-06T09:56:46;101454.09;;;9.28;100.00
47897;BME280;39629;51.400;5.494;2023-04-06T10:01:51;101454.22;;;9.37;100.00
47897;BME280;39629;51.400;5.494;2023-04-06T10:06:53;101460.75;;;9.01;100.00
47897;BME280;39629;51.400;5.494;2023-04-06T10:11:57;101458.72;;;8.83;100.00
47897;BME280;39629;51.400;5.494;2023-04-06T10:17:02;101465.78;;;8.88;100.00
47897;BME280;39629;51.400;5.494;2023-04-06T10:22:05;101465.59;;;8.75;100.00
47897;BME280;39629;51.400;5.494;2023-04-06T10:27:09;101466.69;;;8.91;100.00
47897;BME280;39629;51.400;5.494;2023-04-06T10:32:12;101457.78;;;8.80;100.00
47897;BME280;39629;51.400;5.494;2023-04-06T10:37:14;101467.56;;;8.89;100.00
47897;BME280;39629;51.400;5.494;2023-04-06T10:42:16;101469.28;;;8.90;100.00
47897;BME280;39629;51.400;5.494;2023-04-06T10:47:19;101463.72;;;8.65;100.00
47897;BME280;39629;51.400;5.494;2023-04-06T10:52:21;101463.44;;;8.49;100.00
47897;BME280;39629;51.400;5.494;2023-04-06T10:57:27;101460.34;;;8.18;100.00
47897;BME280;39629;51.400;5.494;2023-04-06T11:02:30;101454.41;;;8.29;100.00
47897;BME280;39629;51.400;5.494;2023-04-06T11:07:32;101454.53;;;8.38;100.00
47897;BME280;39629;51.400;5.494;2023-04-06T11:12:34;101442.41;;;8.45;100.00
47897;BME280;39629;51.400;5.494;2023-04-06T11:17:37;101453.53;;;8.30;100.00
47897;BME280;39629;51.400;5.494;2023-04-06T11:22:48;101452.47;;;8.18;100.00
47897;BME280;39629;51.400;5.494;2023-04-06T11:27:50;101441.78;;;8.06;100.00
47897;BME280;39629;51.400;5.494;2023-04-06T11:33:00;101441.97;;;8.17;100.00
47897;BME280;39629;51.400;5.494;2023-04-06T11:38:03;101429.94;;;8.30;100.00
47897;BME280;39629;51.400;5.494;2023-04-06T11:43:04;101431.63;;;8.84;100.00
47897;BME280;39629;51.400;5.494;2023-04-06T11:48:17;101422.44;;;8.53;100.00
47897;BME280;39629;51.400;5.494;2023-04-06T11:53:19;101421.59;;;8.56;100.00
47897;BME280;39629;51.400;5.494;2023-04-06T11:58:21;101409.94;;;8.38;100.00
47897;BME280;39629;51.400;5.494;2023-04-06T12:03:24;101402.22;;;8.47;100.00
47897;BME280;39629;51.400;5.494;2023-04-06T12:08:25;101400.75;;;8.65;100.00
47897;BME280;39629;51.400;5.494;2023-04-06T12:13:27;101387.69;;;8.71;100.00
47897;BME280;39629;51.400;5.494;2023-04-06T12:18:30;101389.50;;;8.74;100.00
47897;BME280;39629;51.400;5.494;2023-04-06T12:23:32;101385.94;;;8.70;100.00
47897;BME280;39629;51.400;5.494;2023-04-06T12:28:33;101383.28;;;8.67;100.00
47897;BME280;39629;51.400;5.494;2023-04-06T12:33:36;101390.97;;;8.55;100.00
47897;BME280;39629;51.400;5.494;2023-04-06T12:38:38;101382.88;;;8.39;100.00
47897;BME280;39629;51.400;5.494;2023-04-06T12:43:41;101393.19;;;8.27;100.00
47897;BME280;39629;51.400;5.494;2023-04-06T12:48:44;101390.13;;;7.99;100.00
47897;BME280;39629;51.400;5.494;2023-04-06T12:53:45;101377.44;;;8.25;100.00
47897;BME280;39629;51.400;5.494;2023-04-06T12:58:47;101381.63;;;8.14;100.00
47897;BME280;39629;51.400;5.494;2023-04-06T13:03:50;101376.19;;;8.01;100.00
47897;BME280;39629;51.400;5.494;2023-04-06T13:08:51;101358.91;;;8.16;100.00
47897;BME280;39629;51.400;5.494;2023-04-06T13:13:53;101352.69;;;8.09;100.00
47897;BME280;39629;51.400;5.494;2023-04-06T13:18:56;101349.19;;;8.07;100.00
47897;BME280;39629;51.400;5.494;2023-04-06T13:23:58;101346.91;;;8.29;100.00
47897;BME280;39629;51.400;5.494;2023-04-06T13:29:00;101341.50;;;8.18;100.00
47897;BME280;39629;51.400;5.494;2023-04-06T13:34:04;101333.50;;;8.12;100.00
47897;BME280;39629;51.400;5.494;2023-04-06T13:39:05;101342.16;;;8.06;100.00
47897;BME280;39629;51.400;5.494;2023-04-06T13:44:07;101326.44;;;8.06;100.00
47897;BME280;39629;51.400;5.494;2023-04-06T13:49:10;101327.97;;;7.92;100.00
47897;BME280;39629;51.400;5.494;2023-04-06T13:54:11;101315.97;;;8.06;100.00
47897;BME280;39629;51.400;5.494;2023-04-06T13:59:13;101319.16;;;7.88;100.00
47897;BME280;39629;51.400;5.494;2023-04-06T14:04:16;101319.91;;;7.79;100.00
47897;BME280;39629;51.400;5.494;2023-04-06T14:09:17;101322.25;;;7.61;100.00
47897;BME280;39629;51.400;5.494;2023-04-06T14:14:19;101323.16;;;7.64;100.00
47897;BME280;39629;51.400;5.494;2023-04-06T14:19:22;101307.66;;;7.77;100.00
47897;BME280;39629;51.400;5.494;2023-04-06T14:24:24;101310.00;;;7.60;100.00
47897;BME280;39629;51.400;5.494;2023-04-06T14:29:25;101305.75;;;7.66;100.00
47897;BME280;39629;51.400;5.494;2023-04-06T14:34:28;101308.19;;;7.56;100.00
47897;BME280;39629;51.400;5.494;2023-04-06T14:39:30;101307.22;;;7.52;100.00
47897;BME280;39629;51.400;5.494;2023-04-06T14:44:32;101302.00;;;7.52;100.00
47897;BME280;39629;51.400;5.494;2023-04-06T14:49:35;101290.47;;;7.42;100.00
47897;BME280;39629;51.400;5.494;2023-04-06T14:54:37;101282.66;;;7.45;100.00
47897;BME280;39629;51.400;5.494;2023-04-06T14:59:38;101287.84;;;7.42;100.00
47897;BME280;39629;51.400;5.494;2023-04-06T15:04:41;101277.31;;;7.38;100.00
47897;BME280;39629;51.400;5.494;2023-04-06T15:09:43;101272.91;;;7.35;100.00
47897;BME280;39629;51.400;5.494;2023-04-06T15:14:45;101272.94;;;7.38;100.00
47897;BME280;39629;51.400;5.494;2023-04-06T15:19:48;101269.44;;;7.36;100.00
47897;BME280;39629;51.400;5.494;2023-04-06T15:24:50;101261.47;;;7.30;100.00
47897;BME280;39629;51.400;5.494;2023-04-06T15:29:52;101253.69;;;7.33;100.00
47897;BME280;39629;51.400;5.494;2023-04-06T15:34:55;101253.78;;;7.39;100.00
47897;BME280;39629;51.400;5.494;2023-04-06T15:39:57;101241.66;;;7.44;100.00
47897;BME280;39629;51.400;5.494;2023-04-06T15:45:00;101251.19;;;7.41;100.00
47897;BME280;39629;51.400;5.494;2023-04-06T15:50:04;101246.00;;;7.45;100.00
47897;BME280;39629;51.400;5.494;2023-04-06T15:55:08;101246.94;;;7.47;100.00
47897;BME280;39629;51.400;5.494;2023-04-06T16:00:11;101238.16;;;7.45;100.00
47897;BME280;39629;51.400;5.494;2023-04-06T16:05:14;101237.25;;;7.42;100.00
47897;BME280;39629;51.400;5.494;2023-04-06T16:10:16;101232.03;;;7.45;100.00
47897;BME280;39629;51.400;5.494;2023-04-06T16:15:18;101233.75;;;7.41;100.00
47897;BME280;39629;51.400;5.494;2023-04-06T16:20:21;101227.63;;;7.42;100.00
47897;BME280;39629;51.400;5.494;2023-04-06T16:25:24;101220.66;;;7.41;100.00
47897;BME280;39629;51.400;5.494;2023-04-06T16:30:25;101221.56;;;7.45;100.00
47897;BME280;39629;51.400;5.494;2023-04-06T16:35:31;101211.97;;;7.45;100.00
47897;BME280;39629;51.400;5.494;2023-04-06T16:40:32;101217.28;;;7.50;100.00
47897;BME280;39629;51.400;5.494;2023-04-06T16:45:34;101208.50;;;7.48;100.00
47897;BME280;39629;51.400;5.494;2023-04-06T16:50:37;101211.13;;;7.46;100.00
47897;BME280;39629;51.400;5.494;2023-04-06T16:55:39;101200.63;;;7.45;100.00
47897;BME280;39629;51.400;5.494;2023-04-06T17:00:42;101198.81;;;7.42;100.00
47897;BME280;39629;51.400;5.494;2023-04-06T17:05:45;101200.56;;;7.40;100.00
47897;BME280;39629;51.400;5.494;2023-04-06T17:10:47;101199.72;;;7.41;100.00
47897;BME280;39629;51.400;5.494;2023-04-06T17:15:49;101191.91;;;7.44;100.00
47897;BME280;39629;51.400;5.494;2023-04-06T17:20:52;101187.50;;;7.43;100.00
47897;BME280;39629;51.400;5.494;2023-04-06T17:25:54;101184.06;;;7.46;100.00
47897;BME280;39629;51.400;5.494;2023-04-06T17:30:57;101187.56;;;7.48;100.00
47897;BME280;39629;51.400;5.494;2023-04-06T17:36:01;101191.97;;;7.50;100.00
47897;BME280;39629;51.400;5.494;2023-04-06T17:41:03;101186.81;;;7.55;100.00
47897;BME280;39629;51.400;5.494;2023-04-06T17:46:06;101192.94;;;7.56;100.00
47897;BME280;39629;51.400;5.494;2023-04-06T17:51:12;101189.50;;;7.58;100.00
47897;BME280;39629;51.400;5.494;2023-04-06T17:56:14;101192.97;;;7.59;100.00
47897;BME280;39629;51.400;5.494;2023-04-06T18:01:15;101198.22;;;7.60;100.00
47897;BME280;39629;51.400;5.494;2023-04-06T18:06:19;101198.25;;;7.62;100.00
47897;BME280;39629;51.400;5.494;2023-04-06T18:11:22;101206.19;;;7.65;100.00
47897;BME280;39629;51.400;5.494;2023-04-06T18:16:25;101204.47;;;7.69;100.00
47897;BME280;39629;51.400;5.494;2023-04-06T18:21:29;101201.00;;;7.70;100.00
47897;BME280;39629;51.400;5.494;2023-04-06T18:26:31;101205.41;;;7.72;100.00
47897;BME280;39629;51.400;5.494;2023-04-06T18:31:32;101201.03;;;7.73;100.00
47897;BME280;39629;51.400;5.494;2023-04-06T18:36:35;101195.78;;;7.73;100.00
47897;BME280;39629;51.400;5.494;2023-04-06T18:41:37;101207.19;;;7.73;100.00
47897;BME280;39629;51.400;5.494;2023-04-06T18:46:39;101201.97;;;7.75;100.00
47897;BME280;39629;51.400;5.494;2023-04-06T18:51:42;101211.56;;;7.76;100.00
47897;BME280;39629;51.400;5.494;2023-04-06T18:56:43;101209.84;;;7.78;100.00
47897;BME280;39629;51.400;5.494;2023-04-06T19:01:45;101209.84;;;7.78;100.00
47897;BME280;39629;51.400;5.494;2023-04-06T19:06:51;101205.44;;;7.75;100.00
47897;BME280;39629;51.400;5.494;2023-04-06T19:11:54;101207.28;;;7.82;100.00
47897;BME280;39629;51.400;5.494;2023-04-06T19:16:56;101208.09;;;7.78;100.00
47897;BME280;39629;51.400;5.494;2023-04-06T19:21:59;101208.94;;;7.77;100.00
47897;BME280;39629;51.400;5.494;2023-04-06T19:27:01;101211.63;;;7.80;100.00
47897;BME280;39629;51.400;5.494;2023-04-06T19:32:03;101211.69;;;7.83;100.00
47897;BME280;39629;51.400;5.494;2023-04-06T19:37:08;101201.19;;;7.82;100.00
47897;BME280;39629;51.400;5.494;2023-04-06T19:42:10;101209.06;;;7.83;100.00
47897;BME280;39629;51.400;5.494;2023-04-06T19:47:14;101207.31;;;7.86;100.00
47897;BME280;39629;51.400;5.494;2023-04-06T19:52:17;101215.25;;;7.87;100.00
47897;BME280;39629;51.400;5.494;2023-04-06T19:57:19;101219.59;;;7.90;100.00
47897;BME280;39629;51.400;5.494;2023-04-06T20:02:20;101222.28;;;7.91;100.00
47897;BME280;39629;51.400;5.494;2023-04-06T20:07:23;101226.72;;;7.97;100.00
47897;BME280;39629;51.400;5.494;2023-04-06T20:12:25;101222.34;;;7.96;100.00
47897;BME280;39629;51.400;5.494;2023-04-06T20:17:26;101219.75;;;7.99;100.00
47897;BME280;39629;51.400;5.494;2023-04-06T20:22:29;101217.97;;;7.98;100.00
47897;BME280;39629;51.400;5.494;2023-04-06T20:27:31;101216.28;;;8.00;100.00
47897;BME280;39629;51.400;5.494;2023-04-06T20:32:32;101220.66;;;8.01;100.00
47897;BME280;39629;51.400;5.494;2023-04-06T20:37:35;101225.94;;;8.03;100.00
47897;BME280;39629;51.400;5.494;2023-04-06T20:42:39;101227.66;;;8.02;100.00
47897;BME280;39629;51.400;5.494;2023-04-06T20:47:41;101234.69;;;8.05;100.00
47897;BME280;39629;51.400;5.494;2023-04-06T20:52:45;101240.78;;;8.04;100.00
47897;BME280;39629;51.400;5.494;2023-04-06T20:57:47;101235.50;;;8.00;100.00
47897;BME280;39629;51.400;5.494;2023-04-06T21:02:49;101237.28;;;8.03;100.00
47897;BME280;39629;51.400;5.494;2023-04-06T21:07:52;101236.50;;;8.10;100.00
47897;BME280;39629;51.400;5.494;2023-04-06T21:12:54;101239.06;;;8.04;100.00
47897;BME280;39629;51.400;5.494;2023-04-06T21:17:56;101234.69;;;8.05;100.00
47897;BME280;39629;51.400;5.494;2023-04-06T21:22:58;101233.00;;;8.08;100.00
47897;BME280;39629;51.400;5.494;2023-04-06T21:28:00;101232.03;;;8.03;100.00
47897;BME280;39629;51.400;5.494;2023-04-06T21:33:02;101227.72;;;8.07;100.00
47897;BME280;39629;51.400;5.494;2023-04-06T21:38:05;101232.06;;;8.06;100.00
47897;BME280;39629;51.400;5.494;2023-04-06T21:43:06;101234.72;;;8.08;100.00
47897;BME280;39629;51.400;5.494;2023-04-06T21:48:08;101239.13;;;8.10;100.00
47897;BME280;39629;51.400;5.494;2023-04-06T21:53:11;101241.69;;;8.06;100.00
47897;BME280;39629;51.400;5.494;2023-04-06T21:58:13;101239.97;;;8.09;100.00
47897;BME280;39629;51.400;5.494;2023-04-06T22:03:14;101242.53;;;8.03;100.00
47897;BME280;39629;51.400;5.494;2023-04-06T22:08:17;101245.97;;;7.99;100.00
47897;BME280;39629;51.400;5.494;2023-04-06T22:13:19;101251.19;;;7.99;100.00
47897;BME280;39629;51.400;5.494;2023-04-06T22:18:20;101248.59;;;7.99;100.00
47897;BME280;39629;51.400;5.494;2023-04-06T22:23:23;101246.78;;;7.95;100.00
47897;BME280;39629;51.400;5.494;2023-04-06T22:28:25;101258.06;;;7.91;100.00
47897;BME280;39629;51.400;5.494;2023-04-06T22:33:27;101258.91;;;7.90;100.00
47897;BME280;39629;51.400;5.494;2023-04-06T22:38:30;101259.72;;;7.86;100.00
47897;BME280;39629;51.400;5.494;2023-04-06T22:43:31;101264.06;;;7.82;100.00
47897;BME280;39629;51.400;5.494;2023-04-06T22:48:33;101263.13;;;7.78;100.00
47897;BME280;39629;51.400;5.494;2023-04-06T22:53:36;101270.09;;;7.76;100.00
47897;BME280;39629;51.400;5.494;2023-04-06T22:58:37;101271.81;;;7.76;100.00
47897;BME280;39629;51.400;5.494;2023-04-06T23:03:39;101274.41;;;7.74;100.00
47897;BME280;39629;51.400;5.494;2023-04-06T23:08:42;101278.63;;;7.64;100.00
47897;BME280;39629;51.400;5.494;2023-04-06T23:13:43;101279.53;;;7.65;100.00
47897;BME280;39629;51.400;5.494;2023-04-06T23:18:45;101290.81;;;7.61;100.00
47897;BME280;39629;51.400;5.494;2023-04-06T23:23:48;101290.81;;;7.61;100.00
47897;BME280;39629;51.400;5.494;2023-04-06T23:28:50;101294.22;;;7.57;100.00
47897;BME280;39629;51.400;5.494;2023-04-06T23:33:51;101295.13;;;7.59;100.00
47897;BME280;39629;51.400;5.494;2023-04-06T23:38:54;101285.44;;;7.55;100.00
47897;BME280;39629;51.400;5.494;2023-04-06T23:43:56;101284.63;;;7.57;100.00
47897;BME280;39629;51.400;5.494;2023-04-06T23:48:57;101286.38;;;7.57;100.00
47897;BME280;39629;51.400;5.494;2023-04-06T23:54:00;101295.94;;;7.55;100.00
47897;BME280;39629;51.400;5.494;2023-04-06T23:59:02;101295.88;;;7.52;100.00
